sensor_id;sensor_type;location;lat;lon;timestamp;P1;durP1;ratioP1;P2;durP2;ratioP2
6420;SDS011;3243;50.958;7.012;2023-02-18T00:01:17;9.17;;;8.17;;
6420;SDS011;3243;50.958;7.012;2023-02-18T00:03:46;8.80;;;7.30;;
6420;SDS011;3243;50.958;7.012;2023-02-18T00:06:14;8.70;;;7.33;;
6420;SDS011;3243;50.958;7.012;2023-02-18T00:08:42;8.87;;;7.33;;
6420;SDS011;3243;50.958;7.012;2023-02-18T00:11:10;9.30;;;7.53;;
6420;SDS011;3243;50.958;7.012;2023-02-18T00:13:37;8.03;;;7.23;;
6420;SDS011;3243;50.958;7.012;2023-02-18T00:16:05;10.27;;;7.80;;
6420;SDS011;3243;50.958;7.012;2023-02-18T00:18:36;9.87;;;7.53;;
6420;SDS011;3243;50.958;7.012;2023-02-18T00:21:04;8.30;;;6.97;;
6420;SDS011;3243;50.958;7.012;2023-02-18T00:23:32;8.87;;;7.77;;
6420;SDS011;3243;50.958;7.012;2023-02-18T00:26:00;8.00;;;6.90;;
6420;SDS011;3243;50.958;7.012;2023-02-18T00:28:29;9.40;;;7.87;;
6420;SDS011;3243;50.958;7.012;2023-02-18T00:30:55;10.10;;;7.13;;
6420;SDS011;3243;50.958;7.012;2023-02-18T00:33:22;9.17;;;7.73;;
6420;SDS011;3243;50.958;7.012;2023-02-18T00:35:49;7.60;;;6.70;;
6420;SDS011;3243;50.958;7.012;2023-02-18T00:38:16;9.30;;;7.70;;
6420;SDS011;3243;50.958;7.012;2023-02-18T00:40:43;12.33;;;8.10;;
6420;SDS011;3243;50.958;7.012;2023-02-18T00:43:09;9.47;;;6.90;;
6420;SDS011;3243;50.958;7.012;2023-02-18T00:45:36;10.77;;;7.57;;
6420;SDS011;3243;50.958;7.012;2023-02-18T00:48:03;8.00;;;7.20;;
6420;SDS011;3243;50.958;7.012;2023-02-18T00:50:30;7.50;;;6.67;;
6420;SDS011;3243;50.958;7.012;2023-02-18T00:52:57;9.67;;;7.30;;
6420;SDS011;3243;50.958;7.012;2023-02-18T00:55:23;9.93;;;6.83;;
6420;SDS011;3243;50.958;7.012;2023-02-18T00:57:50;7.40;;;6.57;;
6420;SDS011;3243;50.958;7.012;2023-02-18T01:00:17;8.23;;;6.40;;
6420;SDS011;3243;50.958;7.012;2023-02-18T01:02:44;10.37;;;6.73;;
6420;SDS011;3243;50.958;7.012;2023-02-18T01:05:10;9.20;;;6.73;;
6420;SDS011;3243;50.958;7.012;2023-02-18T01:07:37;9.53;;;6.70;;
6420;SDS011;3243;50.958;7.012;2023-02-18T01:10:04;7.10;;;6.40;;
6420;SDS011;3243;50.958;7.012;2023-02-18T01:12:31;7.50;;;6.20;;
6420;SDS011;3243;50.958;7.012;2023-02-18T01:14:58;7.93;;;5.80;;
6420;SDS011;3243;50.958;7.012;2023-02-18T01:17:24;7.53;;;5.83;;
6420;SDS011;3243;50.958;7.012;2023-02-18T01:19:51;6.77;;;5.80;;
6420;SDS011;3243;50.958;7.012;2023-02-18T01:22:18;6.63;;;5.50;;
6420;SDS011;3243;50.958;7.012;2023-02-18T01:24:44;6.10;;;5.50;;
6420;SDS011;3243;50.958;7.012;2023-02-18T01:27:11;6.23;;;5.47;;
6420;SDS011;3243;50.958;7.012;2023-02-18T01:29:38;6.03;;;5.43;;
6420;SDS011;3243;50.958;7.012;2023-02-18T01:32:05;6.77;;;5.43;;
6420;SDS011;3243;50.958;7.012;2023-02-18T01:34:32;6.10;;;5.23;;
6420;SDS011;3243;50.958;7.012;2023-02-18T01:36:59;6.07;;;5.47;;
6420;SDS011;3243;50.958;7.012;2023-02-18T01:39:26;7.27;;;5.43;;
6420;SDS011;3243;50.958;7.012;2023-02-18T01:41:52;6.77;;;5.60;;
6420;SDS011;3243;50.958;7.012;2023-02-18T01:44:21;6.70;;;5.27;;
6420;SDS011;3243;50.958;7.012;2023-02-18T01:46:49;7.50;;;5.97;;
6420;SDS011;3243;50.958;7.012;2023-02-18T01:49:18;6.07;;;5.43;;
6420;SDS011;3243;50.958;7.012;2023-02-18T01:51:51;5.80;;;5.07;;
6420;SDS011;3243;50.958;7.012;2023-02-18T01:56:58;6.37;;;5.13;;
6420;SDS011;3243;50.958;7.012;2023-02-18T01:59:51;6.17;;;5.50;;
6420;SDS011;3243;50.958;7.012;2023-02-18T02:02:21;6.03;;;5.27;;
6420;SDS011;3243;50.958;7.012;2023-02-18T02:04:51;5.73;;;4.73;;
6420;SDS011;3243;50.958;7.012;2023-02-18T02:07:18;6.10;;;4.83;;
6420;SDS011;3243;50.958;7.012;2023-02-18T02:09:47;7.03;;;5.60;;
6420;SDS011;3243;50.958;7.012;2023-02-18T02:22:56;6.40;;;5.80;;
6420;SDS011;3243;50.958;7.012;2023-02-18T02:45:32;10.37;;;7.80;;
6420;SDS011;3243;50.958;7.012;2023-02-18T02:51:13;10.57;;;8.60;;
6420;SDS011;3243;50.958;7.012;2023-02-18T02:53:49;10.30;;;7.63;;
6420;SDS011;3243;50.958;7.012;2023-02-18T02:56:17;9.30;;;7.70;;
6420;SDS011;3243;50.958;7.012;2023-02-18T03:14:58;6.17;;;5.57;;
6420;SDS011;3243;50.958;7.012;2023-02-18T03:17:54;5.53;;;4.67;;
6420;SDS011;3243;50.958;7.012;2023-02-18T03:20:33;5.07;;;4.50;;
6420;SDS011;3243;50.958;7.012;2023-02-18T03:23:02;4.13;;;3.73;;
6420;SDS011;3243;50.958;7.012;2023-02-18T03:25:32;4.40;;;4.00;;
6420;SDS011;3243;50.958;7.012;2023-02-18T03:28:07;3.73;;;3.23;;
6420;SDS011;3243;50.958;7.012;2023-02-18T03:30:41;5.03;;;4.53;;
6420;SDS011;3243;50.958;7.012;2023-02-18T03:33:13;3.60;;;3.10;;
6420;SDS011;3243;50.958;7.012;2023-02-18T03:35:47;3.93;;;3.10;;
6420;SDS011;3243;50.958;7.012;2023-02-18T03:38:18;3.03;;;2.77;;
6420;SDS011;3243;50.958;7.012;2023-02-18T03:40:49;3.83;;;2.80;;
6420;SDS011;3243;50.958;7.012;2023-02-18T03:43:16;3.37;;;2.70;;
6420;SDS011;3243;50.958;7.012;2023-02-18T03:45:43;2.83;;;2.63;;
6420;SDS011;3243;50.958;7.012;2023-02-18T03:48:09;2.83;;;2.63;;
6420;SDS011;3243;50.958;7.012;2023-02-18T03:50:36;3.27;;;2.80;;
6420;SDS011;3243;50.958;7.012;2023-02-18T03:53:03;3.37;;;3.07;;
6420;SDS011;3243;50.958;7.012;2023-02-18T03:55:30;3.20;;;2.90;;
6420;SDS011;3243;50.958;7.012;2023-02-18T03:57:56;4.23;;;3.20;;
6420;SDS011;3243;50.958;7.012;2023-02-18T04:00:23;3.30;;;3.00;;
6420;SDS011;3243;50.958;7.012;2023-02-18T04:02:50;4.33;;;3.43;;
6420;SDS011;3243;50.958;7.012;2023-02-18T04:05:17;4.10;;;3.50;;
6420;SDS011;3243;50.958;7.012;2023-02-18T04:07:43;4.40;;;3.97;;
6420;SDS011;3243;50.958;7.012;2023-02-18T04:10:10;5.40;;;3.70;;
6420;SDS011;3243;50.958;7.012;2023-02-18T04:12:37;4.23;;;3.83;;
6420;SDS011;3243;50.958;7.012;2023-02-18T04:15:04;5.23;;;3.57;;
6420;SDS011;3243;50.958;7.012;2023-02-18T04:17:31;3.23;;;2.93;;
6420;SDS011;3243;50.958;7.012;2023-02-18T04:19:58;4.13;;;3.10;;
6420;SDS011;3243;50.958;7.012;2023-02-18T04:22:25;3.63;;;3.20;;
6420;SDS011;3243;50.958;7.012;2023-02-18T04:24:52;3.17;;;2.87;;
6420;SDS011;3243;50.958;7.012;2023-02-18T04:27:18;3.30;;;3.00;;
6420;SDS011;3243;50.958;7.012;2023-02-18T04:29:45;4.13;;;2.70;;
6420;SDS011;3243;50.958;7.012;2023-02-18T04:32:12;3.30;;;2.63;;
6420;SDS011;3243;50.958;7.012;2023-02-18T04:34:39;3.07;;;2.77;;
6420;SDS011;3243;50.958;7.012;2023-02-18T04:37:06;4.77;;;3.33;;
6420;SDS011;3243;50.958;7.012;2023-02-18T04:39:32;2.07;;;1.90;;
6420;SDS011;3243;50.958;7.012;2023-02-18T04:41:59;1.93;;;1.83;;
6420;SDS011;3243;50.958;7.012;2023-02-18T04:44:26;1.80;;;1.70;;
6420;SDS011;3243;50.958;7.012;2023-02-18T04:46:53;2.47;;;1.70;;
6420;SDS011;3243;50.958;7.012;2023-02-18T04:49:19;3.87;;;1.70;;
6420;SDS011;3243;50.958;7.012;2023-02-18T04:51:46;2.60;;;1.63;;
6420;SDS011;3243;50.958;7.012;2023-02-18T04:54:13;1.33;;;1.23;;
6420;SDS011;3243;50.958;7.012;2023-02-18T04:56:39;1.50;;;1.33;;
6420;SDS011;3243;50.958;7.012;2023-02-18T04:59:06;2.17;;;1.10;;
6420;SDS011;3243;50.958;7.012;2023-02-18T05:01:33;1.00;;;1.00;;
6420;SDS011;3243;50.958;7.012;2023-02-18T05:04:00;0.80;;;0.80;;
6420;SDS011;3243;50.958;7.012;2023-02-18T05:06:27;1.10;;;1.00;;
6420;SDS011;3243;50.958;7.012;2023-02-18T05:08:53;1.17;;;1.00;;
6420;SDS011;3243;50.958;7.012;2023-02-18T05:11:20;1.00;;;1.00;;
6420;SDS011;3243;50.958;7.012;2023-02-18T05:13:47;1.43;;;1.07;;
6420;SDS011;3243;50.958;7.012;2023-02-18T05:16:14;1.20;;;1.10;;
6420;SDS011;3243;50.958;7.012;2023-02-18T05:18:40;1.93;;;1.30;;
6420;SDS011;3243;50.958;7.012;2023-02-18T05:21:07;1.30;;;1.20;;
6420;SDS011;3243;50.958;7.012;2023-02-18T05:23:34;1.60;;;1.50;;
6420;SDS011;3243;50.958;7.012;2023-02-18T05:26:01;1.50;;;1.40;;
6420;SDS011;3243;50.958;7.012;2023-02-18T05:28:27;1.37;;;1.27;;
6420;SDS011;3243;50.958;7.012;2023-02-18T05:30:54;1.50;;;1.40;;
6420;SDS011;3243;50.958;7.012;2023-02-18T05:33:21;1.47;;;1.37;;
6420;SDS011;3243;50.958;7.012;2023-02-18T05:35:48;1.43;;;1.33;;
6420;SDS011;3243;50.958;7.012;2023-02-18T05:38:15;1.50;;;1.40;;
6420;SDS011;3243;50.958;7.012;2023-02-18T05:40:42;1.60;;;1.47;;
6420;SDS011;3243;50.958;7.012;2023-02-18T05:43:09;1.63;;;1.53;;
6420;SDS011;3243;50.958;7.012;2023-02-18T05:45:35;1.50;;;1.40;;
6420;SDS011;3243;50.958;7.012;2023-02-18T05:48:02;1.63;;;1.53;;
6420;SDS011;3243;50.958;7.012;2023-02-18T05:50:29;1.70;;;1.50;;
6420;SDS011;3243;50.958;7.012;2023-02-18T05:52:56;1.97;;;1.70;;
6420;SDS011;3243;50.958;7.012;2023-02-18T05:55:23;2.00;;;1.50;;
6420;SDS011;3243;50.958;7.012;2023-02-18T05:57:49;1.43;;;1.33;;
6420;SDS011;3243;50.958;7.012;2023-02-18T06:00:17;2.30;;;1.57;;
6420;SDS011;3243;50.958;7.012;2023-02-18T06:02:44;2.23;;;1.63;;
6420;SDS011;3243;50.958;7.012;2023-02-18T06:05:11;2.27;;;1.50;;
6420;SDS011;3243;50.958;7.012;2023-02-18T06:07:38;1.60;;;1.50;;
6420;SDS011;3243;50.958;7.012;2023-02-18T06:10:04;1.70;;;1.60;;
6420;SDS011;3243;50.958;7.012;2023-02-18T06:12:32;2.20;;;1.80;;
6420;SDS011;3243;50.958;7.012;2023-02-18T06:14:58;1.93;;;1.80;;
6420;SDS011;3243;50.958;7.012;2023-02-18T06:17:25;1.80;;;1.70;;
6420;SDS011;3243;50.958;7.012;2023-02-18T06:19:52;1.83;;;1.70;;
6420;SDS011;3243;50.958;7.012;2023-02-18T06:22:19;1.97;;;1.77;;
6420;SDS011;3243;50.958;7.012;2023-02-18T06:24:46;1.57;;;1.47;;
6420;SDS011;3243;50.958;7.012;2023-02-18T06:27:12;2.10;;;1.47;;
6420;SDS011;3243;50.958;7.012;2023-02-18T06:29:39;1.50;;;1.40;;
6420;SDS011;3243;50.958;7.012;2023-02-18T06:32:06;1.60;;;1.50;;
6420;SDS011;3243;50.958;7.012;2023-02-18T06:34:33;3.53;;;1.30;;
6420;SDS011;3243;50.958;7.012;2023-02-18T06:36:59;1.70;;;1.60;;
6420;SDS011;3243;50.958;7.012;2023-02-18T06:39:26;1.30;;;1.20;;
6420;SDS011;3243;50.958;7.012;2023-02-18T06:41:53;2.30;;;1.53;;
6420;SDS011;3243;50.958;7.012;2023-02-18T06:44:20;1.87;;;1.40;;
6420;SDS011;3243;50.958;7.012;2023-02-18T06:46:47;1.20;;;1.20;;
6420;SDS011;3243;50.958;7.012;2023-02-18T06:49:14;1.30;;;1.20;;
6420;SDS011;3243;50.958;7.012;2023-02-18T06:51:41;1.00;;;1.00;;
6420;SDS011;3243;50.958;7.012;2023-02-18T06:54:07;1.20;;;1.10;;
6420;SDS011;3243;50.958;7.012;2023-02-18T06:56:34;1.00;;;1.00;;
6420;SDS011;3243;50.958;7.012;2023-02-18T06:59:01;1.13;;;1.10;;
6420;SDS011;3243;50.958;7.012;2023-02-18T07:01:27;1.13;;;1.00;;
6420;SDS011;3243;50.958;7.012;2023-02-18T07:03:54;1.27;;;1.00;;
6420;SDS011;3243;50.958;7.012;2023-02-18T07:06:21;0.97;;;0.97;;
6420;SDS011;3243;50.958;7.012;2023-02-18T07:08:48;1.10;;;1.10;;
6420;SDS011;3243;50.958;7.012;2023-02-18T07:11:15;1.10;;;1.10;;
6420;SDS011;3243;50.958;7.012;2023-02-18T07:13:41;1.00;;;1.00;;
6420;SDS011;3243;50.958;7.012;2023-02-18T07:16:08;1.07;;;1.07;;
6420;SDS011;3243;50.958;7.012;2023-02-18T07:18:36;1.10;;;1.10;;
6420;SDS011;3243;50.958;7.012;2023-02-18T07:21:02;1.10;;;1.00;;
6420;SDS011;3243;50.958;7.012;2023-02-18T07:23:29;3.27;;;1.07;;
6420;SDS011;3243;50.958;7.012;2023-02-18T07:26:08;0.93;;;0.93;;
6420;SDS011;3243;50.958;7.012;2023-02-18T07:28:36;1.30;;;1.00;;
6420;SDS011;3243;50.958;7.012;2023-02-18T07:31:04;1.03;;;0.93;;
6420;SDS011;3243;50.958;7.012;2023-02-18T07:33:31;1.17;;;1.07;;
6420;SDS011;3243;50.958;7.012;2023-02-18T07:35:58;1.20;;;1.20;;
6420;SDS011;3243;50.958;7.012;2023-02-18T07:38:26;1.30;;;1.20;;
6420;SDS011;3243;50.958;7.012;2023-02-18T07:40:54;1.00;;;1.00;;
6420;SDS011;3243;50.958;7.012;2023-02-18T07:43:21;1.30;;;1.20;;
6420;SDS011;3243;50.958;7.012;2023-02-18T07:45:48;2.27;;;1.00;;
6420;SDS011;3243;50.958;7.012;2023-02-18T07:48:14;1.03;;;1.03;;
6420;SDS011;3243;50.958;7.012;2023-02-18T07:50:42;0.90;;;0.90;;
6420;SDS011;3243;50.958;7.012;2023-02-18T07:53:11;1.10;;;1.10;;
6420;SDS011;3243;50.958;7.012;2023-02-18T07:55:39;1.23;;;1.20;;
6420;SDS011;3243;50.958;7.012;2023-02-18T07:58:19;1.20;;;1.10;;
6420;SDS011;3243;50.958;7.012;2023-02-18T08:00:50;1.10;;;1.10;;
6420;SDS011;3243;50.958;7.012;2023-02-18T08:03:28;1.20;;;1.10;;
6420;SDS011;3243;50.958;7.012;2023-02-18T08:05:56;1.33;;;1.23;;
6420;SDS011;3243;50.958;7.012;2023-02-18T08:08:25;1.30;;;1.20;;
6420;SDS011;3243;50.958;7.012;2023-02-18T08:10:55;1.53;;;1.23;;
6420;SDS011;3243;50.958;7.012;2023-02-18T08:13:28;1.80;;;1.37;;
6420;SDS011;3243;50.958;7.012;2023-02-18T08:15:55;1.30;;;1.30;;
6420;SDS011;3243;50.958;7.012;2023-02-18T08:18:23;1.50;;;1.40;;
6420;SDS011;3243;50.958;7.012;2023-02-18T08:20:51;2.27;;;1.90;;
6420;SDS011;3243;50.958;7.012;2023-02-18T08:23:19;4.80;;;2.03;;
6420;SDS011;3243;50.958;7.012;2023-02-18T08:25:48;3.27;;;1.73;;
6420;SDS011;3243;50.958;7.012;2023-02-18T08:28:16;4.33;;;1.70;;
6420;SDS011;3243;50.958;7.012;2023-02-18T08:30:47;4.20;;;1.90;;
6420;SDS011;3243;50.958;7.012;2023-02-18T08:33:16;3.93;;;2.57;;
6420;SDS011;3243;50.958;7.012;2023-02-18T08:35:43;4.10;;;2.30;;
6420;SDS011;3243;50.958;7.012;2023-02-18T08:38:11;3.27;;;2.20;;
6420;SDS011;3243;50.958;7.012;2023-02-18T08:40:38;4.63;;;2.27;;
6420;SDS011;3243;50.958;7.012;2023-02-18T08:43:06;4.23;;;2.40;;
6420;SDS011;3243;50.958;7.012;2023-02-18T08:45:32;4.87;;;2.20;;
6420;SDS011;3243;50.958;7.012;2023-02-18T08:48:01;6.13;;;3.00;;
6420;SDS011;3243;50.958;7.012;2023-02-18T08:50:46;3.77;;;2.30;;
6420;SDS011;3243;50.958;7.012;2023-02-18T08:53:13;8.50;;;2.70;;
6420;SDS011;3243;50.958;7.012;2023-02-18T08:55:40;6.93;;;2.63;;
6420;SDS011;3243;50.958;7.012;2023-02-18T08:58:07;5.73;;;2.70;;
6420;SDS011;3243;50.958;7.012;2023-02-18T09:00:34;5.17;;;2.70;;
6420;SDS011;3243;50.958;7.012;2023-02-18T09:03:03;7.43;;;2.63;;
6420;SDS011;3243;50.958;7.012;2023-02-18T09:05:29;7.27;;;2.57;;
6420;SDS011;3243;50.958;7.012;2023-02-18T09:07:56;6.57;;;2.27;;
6420;SDS011;3243;50.958;7.012;2023-02-18T09:10:23;5.80;;;2.50;;
6420;SDS011;3243;50.958;7.012;2023-02-18T09:12:50;8.20;;;2.50;;
6420;SDS011;3243;50.958;7.012;2023-02-18T09:15:16;6.50;;;2.40;;
6420;SDS011;3243;50.958;7.012;2023-02-18T09:17:43;9.10;;;2.30;;
6420;SDS011;3243;50.958;7.012;2023-02-18T09:20:10;8.00;;;2.50;;
6420;SDS011;3243;50.958;7.012;2023-02-18T09:22:38;7.93;;;2.43;;
6420;SDS011;3243;50.958;7.012;2023-02-18T09:25:05;9.03;;;2.50;;
6420;SDS011;3243;50.958;7.012;2023-02-18T09:27:32;9.47;;;2.70;;
6420;SDS011;3243;50.958;7.012;2023-02-18T09:29:59;5.00;;;2.17;;
6420;SDS011;3243;50.958;7.012;2023-02-18T09:32:26;7.97;;;2.37;;
6420;SDS011;3243;50.958;7.012;2023-02-18T09:35:01;6.87;;;2.30;;
6420;SDS011;3243;50.958;7.012;2023-02-18T09:37:28;7.93;;;2.10;;
6420;SDS011;3243;50.958;7.012;2023-02-18T09:39:55;7.23;;;2.50;;
6420;SDS011;3243;50.958;7.012;2023-02-18T09:42:24;7.33;;;2.70;;
6420;SDS011;3243;50.958;7.012;2023-02-18T09:44:57;7.80;;;3.07;;
6420;SDS011;3243;50.958;7.012;2023-02-18T09:47:44;7.20;;;2.50;;
6420;SDS011;3243;50.958;7.012;2023-02-18T09:52:38;6.97;;;2.00;;
6420;SDS011;3243;50.958;7.012;2023-02-18T09:55:19;7.17;;;2.37;;
6420;SDS011;3243;50.958;7.012;2023-02-18T09:57:53;10.33;;;2.60;;
6420;SDS011;3243;50.958;7.012;2023-02-18T10:02:56;8.30;;;2.30;;
6420;SDS011;3243;50.958;7.012;2023-02-18T10:05:26;8.27;;;2.20;;
6420;SDS011;3243;50.958;7.012;2023-02-18T10:08:03;5.90;;;2.47;;
6420;SDS011;3243;50.958;7.012;2023-02-18T10:10:42;10.33;;;2.70;;
6420;SDS011;3243;50.958;7.012;2023-02-18T10:13:21;5.43;;;2.40;;
6420;SDS011;3243;50.958;7.012;2023-02-18T10:15:51;5.57;;;2.40;;
6420;SDS011;3243;50.958;7.012;2023-02-18T10:21:08;10.97;;;2.60;;
6420;SDS011;3243;50.958;7.012;2023-02-18T10:23:43;9.00;;;2.50;;
6420;SDS011;3243;50.958;7.012;2023-02-18T10:26:20;6.97;;;2.50;;
6420;SDS011;3243;50.958;7.012;2023-02-18T10:28:47;9.03;;;2.30;;
6420;SDS011;3243;50.958;7.012;2023-02-18T10:31:16;4.13;;;2.47;;
6420;SDS011;3243;50.958;7.012;2023-02-18T10:36:27;6.60;;;2.50;;
6420;SDS011;3243;50.958;7.012;2023-02-18T10:44:54;6.00;;;2.37;;
6420;SDS011;3243;50.958;7.012;2023-02-18T10:50:04;6.80;;;2.63;;
6420;SDS011;3243;50.958;7.012;2023-02-18T10:52:49;5.17;;;2.33;;
6420;SDS011;3243;50.958;7.012;2023-02-18T10:55:20;7.53;;;3.07;;
6420;SDS011;3243;50.958;7.012;2023-02-18T10:58:23;6.30;;;2.70;;
6420;SDS011;3243;50.958;7.012;2023-02-18T11:01:15;4.93;;;2.57;;
6420;SDS011;3243;50.958;7.012;2023-02-18T11:03:49;6.30;;;2.50;;
6420;SDS011;3243;50.958;7.012;2023-02-18T11:06:21;7.33;;;2.53;;
6420;SDS011;3243;50.958;7.012;2023-02-18T11:08:55;5.80;;;2.70;;
6420;SDS011;3243;50.958;7.012;2023-02-18T11:11:24;6.77;;;2.97;;
6420;SDS011;3243;50.958;7.012;2023-02-18T11:13:56;7.00;;;3.13;;
6420;SDS011;3243;50.958;7.012;2023-02-18T11:16:35;8.03;;;3.03;;
6420;SDS011;3243;50.958;7.012;2023-02-18T11:19:04;6.87;;;2.93;;
6420;SDS011;3243;50.958;7.012;2023-02-18T11:21:35;7.60;;;3.37;;
6420;SDS011;3243;50.958;7.012;2023-02-18T11:24:14;10.23;;;3.47;;
6420;SDS011;3243;50.958;7.012;2023-02-18T11:26:41;6.23;;;3.40;;
6420;SDS011;3243;50.958;7.012;2023-02-18T11:31:47;5.20;;;3.30;;
6420;SDS011;3243;50.958;7.012;2023-02-18T11:34:21;4.80;;;3.03;;
6420;SDS011;3243;50.958;7.012;2023-02-18T11:36:55;4.93;;;3.00;;
6420;SDS011;3243;50.958;7.012;2023-02-18T11:39:34;6.67;;;3.53;;
6420;SDS011;3243;50.958;7.012;2023-02-18T11:42:02;5.80;;;3.50;;
6420;SDS011;3243;50.958;7.012;2023-02-18T11:49:25;6.50;;;3.63;;
6420;SDS011;3243;50.958;7.012;2023-02-18T11:51:56;4.97;;;3.30;;
6420;SDS011;3243;50.958;7.012;2023-02-18T11:54:44;5.57;;;3.90;;
6420;SDS011;3243;50.958;7.012;2023-02-18T11:57:31;8.57;;;3.80;;
6420;SDS011;3243;50.958;7.012;2023-02-18T12:00:00;7.70;;;3.23;;
6420;SDS011;3243;50.958;7.012;2023-02-18T12:02:36;4.00;;;2.50;;
6420;SDS011;3243;50.958;7.012;2023-02-18T12:05:20;3.83;;;2.70;;
6420;SDS011;3243;50.958;7.012;2023-02-18T12:08:00;4.70;;;2.63;;
6420;SDS011;3243;50.958;7.012;2023-02-18T12:10:52;4.93;;;2.80;;
6420;SDS011;3243;50.958;7.012;2023-02-18T12:13:26;3.67;;;2.90;;
6420;SDS011;3243;50.958;7.012;2023-02-18T12:16:17;3.80;;;2.70;;
6420;SDS011;3243;50.958;7.012;2023-02-18T12:18:56;5.40;;;3.27;;
6420;SDS011;3243;50.958;7.012;2023-02-18T12:29:26;3.70;;;2.70;;
6420;SDS011;3243;50.958;7.012;2023-02-18T12:56:30;4.40;;;2.43;;
6420;SDS011;3243;50.958;7.012;2023-02-18T13:04:50;12.07;;;6.07;;
6420;SDS011;3243;50.958;7.012;2023-02-18T13:10:21;4.90;;;2.80;;
6420;SDS011;3243;50.958;7.012;2023-02-18T13:13:02;4.13;;;2.70;;
6420;SDS011;3243;50.958;7.012;2023-02-18T13:18:00;3.77;;;2.30;;
6420;SDS011;3243;50.958;7.012;2023-02-18T13:20:39;3.03;;;2.23;;
6420;SDS011;3243;50.958;7.012;2023-02-18T13:23:25;3.70;;;2.40;;
6420;SDS011;3243;50.958;7.012;2023-02-18T13:25:58;2.43;;;2.23;;
6420;SDS011;3243;50.958;7.012;2023-02-18T13:28:34;2.63;;;2.33;;
6420;SDS011;3243;50.958;7.012;2023-02-18T13:34:12;5.43;;;2.60;;
6420;SDS011;3243;50.958;7.012;2023-02-18T13:39:48;4.67;;;2.60;;
6420;SDS011;3243;50.958;7.012;2023-02-18T13:42:29;5.40;;;2.50;;
6420;SDS011;3243;50.958;7.012;2023-02-18T13:45:02;2.77;;;2.30;;
6420;SDS011;3243;50.958;7.012;2023-02-18T13:47:42;3.10;;;2.20;;
6420;SDS011;3243;50.958;7.012;2023-02-18T13:58:22;2.37;;;2.10;;
6420;SDS011;3243;50.958;7.012;2023-02-18T14:00:54;3.37;;;2.20;;
6420;SDS011;3243;50.958;7.012;2023-02-18T14:03:35;4.77;;;2.40;;
6420;SDS011;3243;50.958;7.012;2023-02-18T14:06:28;3.67;;;2.40;;
6420;SDS011;3243;50.958;7.012;2023-02-18T14:09:33;4.97;;;2.80;;
6420;SDS011;3243;50.958;7.012;2023-02-18T14:11:54;3.00;;;2.13;;
6420;SDS011;3243;50.958;7.012;2023-02-18T14:27:33;2.60;;;2.00;;
6420;SDS011;3243;50.958;7.012;2023-02-18T14:30:05;2.63;;;2.10;;
6420;SDS011;3243;50.958;7.012;2023-02-18T14:32:43;3.93;;;2.40;;
6420;SDS011;3243;50.958;7.012;2023-02-18T14:43:36;2.93;;;2.20;;
6420;SDS011;3243;50.958;7.012;2023-02-18T14:49:10;2.83;;;2.10;;
6420;SDS011;3243;50.958;7.012;2023-02-18T14:51:57;2.77;;;1.80;;
6420;SDS011;3243;50.958;7.012;2023-02-18T14:54:25;4.17;;;2.40;;
6420;SDS011;3243;50.958;7.012;2023-02-18T14:59:22;2.80;;;1.70;;
6420;SDS011;3243;50.958;7.012;2023-02-18T15:01:59;2.87;;;1.70;;
6420;SDS011;3243;50.958;7.012;2023-02-18T15:04:26;3.50;;;1.80;;
6420;SDS011;3243;50.958;7.012;2023-02-18T15:07:03;2.83;;;2.07;;
6420;SDS011;3243;50.958;7.012;2023-02-18T15:09:34;3.43;;;1.90;;
6420;SDS011;3243;50.958;7.012;2023-02-18T15:12:11;2.10;;;1.83;;
6420;SDS011;3243;50.958;7.012;2023-02-18T15:14:51;2.83;;;2.07;;
6420;SDS011;3243;50.958;7.012;2023-02-18T15:17:20;2.27;;;2.00;;
6420;SDS011;3243;50.958;7.012;2023-02-18T15:19:50;2.43;;;2.23;;
6420;SDS011;3243;50.958;7.012;2023-02-18T15:22:20;2.40;;;2.20;;
6420;SDS011;3243;50.958;7.012;2023-02-18T15:24:49;3.33;;;2.10;;
6420;SDS011;3243;50.958;7.012;2023-02-18T15:29:56;2.40;;;2.00;;
6420;SDS011;3243;50.958;7.012;2023-02-18T15:32:50;2.93;;;1.87;;
6420;SDS011;3243;50.958;7.012;2023-02-18T15:35:19;3.83;;;1.90;;
6420;SDS011;3243;50.958;7.012;2023-02-18T15:37:51;3.20;;;2.20;;
6420;SDS011;3243;50.958;7.012;2023-02-18T15:40:20;3.40;;;2.07;;
6420;SDS011;3243;50.958;7.012;2023-02-18T15:42:49;2.80;;;2.50;;
6420;SDS011;3243;50.958;7.012;2023-02-18T15:45:18;2.57;;;2.07;;
6420;SDS011;3243;50.958;7.012;2023-02-18T15:48:03;2.97;;;2.00;;
6420;SDS011;3243;50.958;7.012;2023-02-18T15:50:35;4.23;;;2.57;;
6420;SDS011;3243;50.958;7.012;2023-02-18T15:53:13;3.40;;;2.10;;
6420;SDS011;3243;50.958;7.012;2023-02-18T15:55:43;4.87;;;2.50;;
6420;SDS011;3243;50.958;7.012;2023-02-18T15:58:14;2.90;;;1.93;;
6420;SDS011;3243;50.958;7.012;2023-02-18T16:00:47;3.80;;;2.10;;
6420;SDS011;3243;50.958;7.012;2023-02-18T16:03:23;2.57;;;2.00;;
6420;SDS011;3243;50.958;7.012;2023-02-18T16:09:01;2.40;;;1.93;;
6420;SDS011;3243;50.958;7.012;2023-02-18T16:11:30;3.53;;;2.10;;
6420;SDS011;3243;50.958;7.012;2023-02-18T16:14:00;2.63;;;2.20;;
6420;SDS011;3243;50.958;7.012;2023-02-18T16:16:29;2.87;;;2.20;;
6420;SDS011;3243;50.958;7.012;2023-02-18T16:18:58;2.60;;;1.80;;
6420;SDS011;3243;50.958;7.012;2023-02-18T16:21:30;3.10;;;2.20;;
6420;SDS011;3243;50.958;7.012;2023-02-18T16:24:03;2.10;;;1.90;;
6420;SDS011;3243;50.958;7.012;2023-02-18T16:26:49;3.43;;;1.97;;
6420;SDS011;3243;50.958;7.012;2023-02-18T16:29:39;2.30;;;2.10;;
6420;SDS011;3243;50.958;7.012;2023-02-18T16:32:07;2.17;;;1.90;;
6420;SDS011;3243;50.958;7.012;2023-02-18T16:34:34;2.13;;;1.93;;
6420;SDS011;3243;50.958;7.012;2023-02-18T16:37:01;2.27;;;1.97;;
6420;SDS011;3243;50.958;7.012;2023-02-18T16:39:48;2.50;;;2.30;;
6420;SDS011;3243;50.958;7.012;2023-02-18T16:42:17;2.60;;;2.40;;
6420;SDS011;3243;50.958;7.012;2023-02-18T16:44:43;4.37;;;2.23;;
6420;SDS011;3243;50.958;7.012;2023-02-18T16:47:13;2.27;;;2.00;;
6420;SDS011;3243;50.958;7.012;2023-02-18T16:49:42;2.67;;;2.10;;
6420;SDS011;3243;50.958;7.012;2023-02-18T16:52:11;2.53;;;2.30;;
6420;SDS011;3243;50.958;7.012;2023-02-18T16:54:41;2.97;;;2.63;;
6420;SDS011;3243;50.958;7.012;2023-02-18T16:57:09;2.47;;;2.27;;
6420;SDS011;3243;50.958;7.012;2023-02-18T16:59:36;2.80;;;2.17;;
6420;SDS011;3243;50.958;7.012;2023-02-18T17:02:03;3.90;;;2.50;;
6420;SDS011;3243;50.958;7.012;2023-02-18T17:04:30;2.80;;;2.57;;
6420;SDS011;3243;50.958;7.012;2023-02-18T17:06:57;2.87;;;2.03;;
6420;SDS011;3243;50.958;7.012;2023-02-18T17:09:24;2.57;;;2.37;;
6420;SDS011;3243;50.958;7.012;2023-02-18T17:11:53;4.00;;;2.70;;
6420;SDS011;3243;50.958;7.012;2023-02-18T17:14:21;5.80;;;2.93;;
6420;SDS011;3243;50.958;7.012;2023-02-18T17:16:49;5.27;;;3.07;;
6420;SDS011;3243;50.958;7.012;2023-02-18T17:19:18;3.33;;;3.03;;
6420;SDS011;3243;50.958;7.012;2023-02-18T17:21:45;7.20;;;3.07;;
6420;SDS011;3243;50.958;7.012;2023-02-18T17:24:14;5.87;;;3.03;;
6420;SDS011;3243;50.958;7.012;2023-02-18T17:26:43;5.13;;;3.23;;
6420;SDS011;3243;50.958;7.012;2023-02-18T17:29:10;4.13;;;3.10;;
6420;SDS011;3243;50.958;7.012;2023-02-18T17:31:39;4.67;;;3.30;;
6420;SDS011;3243;50.958;7.012;2023-02-18T17:34:18;3.33;;;3.03;;
6420;SDS011;3243;50.958;7.012;2023-02-18T17:36:50;4.47;;;3.77;;
6420;SDS011;3243;50.958;7.012;2023-02-18T17:39:17;5.30;;;3.57;;
6420;SDS011;3243;50.958;7.012;2023-02-18T17:41:43;5.90;;;3.60;;
6420;SDS011;3243;50.958;7.012;2023-02-18T17:46:41;4.20;;;3.40;;
6420;SDS011;3243;50.958;7.012;2023-02-18T17:49:08;5.90;;;4.10;;
6420;SDS011;3243;50.958;7.012;2023-02-18T17:51:35;4.47;;;3.80;;
6420;SDS011;3243;50.958;7.012;2023-02-18T17:54:13;4.53;;;4.10;;
6420;SDS011;3243;50.958;7.012;2023-02-18T17:56:42;6.43;;;4.03;;
6420;SDS011;3243;50.958;7.012;2023-02-18T17:59:09;4.30;;;3.90;;
6420;SDS011;3243;50.958;7.012;2023-02-18T18:01:36;5.73;;;4.40;;
6420;SDS011;3243;50.958;7.012;2023-02-18T18:04:05;4.50;;;3.70;;
6420;SDS011;3243;50.958;7.012;2023-02-18T18:06:38;5.40;;;4.90;;
6420;SDS011;3243;50.958;7.012;2023-02-18T18:09:05;5.83;;;5.17;;
6420;SDS011;3243;50.958;7.012;2023-02-18T18:11:32;5.60;;;4.57;;
6420;SDS011;3243;50.958;7.012;2023-02-18T18:13:59;5.67;;;5.07;;
6420;SDS011;3243;50.958;7.012;2023-02-18T18:16:26;7.73;;;5.77;;
6420;SDS011;3243;50.958;7.012;2023-02-18T18:18:53;6.53;;;5.70;;
6420;SDS011;3243;50.958;7.012;2023-02-18T18:21:21;7.60;;;6.00;;
6420;SDS011;3243;50.958;7.012;2023-02-18T18:23:54;7.33;;;6.60;;
6420;SDS011;3243;50.958;7.012;2023-02-18T18:26:21;8.07;;;7.27;;